Time;durP1;ratioP1;P1;durP2;ratioP2;P2;SDS_P1;SDS_P2;PMS_P1;PMS_P2;Temp;Humidity;BMP_temperature;BMP_pressure;BME280_temperature;BME280_humidity;BME280_pressure;Samples;Min_cycle;Max_cycle;Signal;HPM_P1;HPM_P2
2022/07/16 00:03:15;;;;;;;2.72;1.30;;;17.10;91.80;;;17.48;71.96;101490.84;5190559;28;20049;-74
2022/07/16 00:05:47;;;;;;;2.13;1.30;;;17.10;92.10;;;17.44;72.16;101491.63;5208177;28;20044;-75
2022/07/16 00:08:19;;;;;;;3.60;1.52;;;17.00;92.20;;;17.39;72.64;101492.41;5208246;28;20099;-75
2022/07/16 00:10:51;;;;;;;3.40;1.40;;;17.00;92.50;;;17.33;72.95;101494.06;5208653;28;20045;-75
2022/07/16 00:13:24;;;;;;;2.70;1.45;;;17.00;92.70;;;17.28;73.33;101490.47;5208158;28;20050;-76
2022/07/16 00:15:57;;;;;;;2.05;1.20;;;16.90;92.90;;;17.28;73.73;101492.22;5207444;28;20041;-75
2022/07/16 00:21:19;;;;;;;2.72;1.13;;;16.90;93.30;;;17.30;73.36;101495.75;5190512;28;20132;-75
2022/07/16 00:23:52;;;;;;;2.67;1.30;;;16.90;93.30;;;17.31;73.00;101494.91;5208116;28;20636;-75
2022/07/16 00:26:24;;;;;;;1.77;1.20;;;16.90;93.20;;;17.31;73.13;101500.16;5190041;28;20030;-75
2022/07/16 00:28:56;;;;;;;3.00;1.42;;;16.90;93.30;;;17.30;72.91;101496.66;5207905;28;20080;-74
2022/07/16 00:31:30;;;;;;;2.40;1.40;;;16.90;93.30;;;17.32;72.97;101491.41;5207968;28;20053;-74
2022/07/16 00:34:02;;;;;;;1.98;1.35;;;16.90;93.40;;;17.31;72.87;101489.63;5190294;28;20059;-75
2022/07/16 00:36:34;;;;;;;2.25;1.35;;;16.90;93.40;;;17.33;72.63;101493.16;5189905;28;20049;-74
2022/07/16 00:39:09;;;;;;;2.03;1.23;;;16.90;93.30;;;17.32;72.47;101484.38;5207706;28;20041;-74
2022/07/16 00:41:43;;;;;;;1.90;1.35;;;16.90;93.30;;;17.34;72.51;101490.59;5207597;28;20045;-75
2022/07/16 00:44:19;;;;;;;2.90;1.40;;;16.90;93.40;;;17.34;72.25;101494.94;5207639;28;20073;-74
2022/07/16 00:46:52;;;;;;;3.35;1.30;;;16.90;93.30;;;17.33;72.30;101494.06;5207447;28;20049;-75
2022/07/16 00:49:25;;;;;;;3.30;1.40;;;16.90;93.30;;;17.33;72.24;101498.44;5207538;28;20073;-74
2022/07/16 00:51:57;;;;;;;1.80;1.30;;;16.90;93.30;;;17.32;72.26;101492.28;5207459;28;20099;-74
2022/07/16 00:54:29;;;;;;;1.98;1.30;;;16.90;93.40;;;17.28;72.76;101494.84;5207493;28;20394;-75
2022/07/16 00:57:02;;;;;;;3.22;1.42;;;16.90;93.60;;;17.22;73.37;101494.75;5207616;28;20045;-75
2022/07/16 00:59:34;;;;;;;2.13;1.33;;;16.90;93.80;;;17.15;73.85;101493.75;5207186;28;20046;-74
2022/07/16 01:02:08;;;;;;;2.40;1.30;;;16.80;94.10;;;17.09;74.23;101488.34;5206996;28;20052;-75
2022/07/16 01:04:40;;;;;;;4.25;1.80;;;16.70;94.30;;;17.03;74.63;101488.22;5207068;28;20052;-74
2022/07/16 01:07:13;;;;;;;3.78;1.55;;;16.70;94.50;;;16.97;75.01;101494.25;5207041;28;20077;-75
2022/07/16 01:09:45;;;;;;;3.22;1.45;;;16.60;95.00;;;16.95;74.94;101493.34;5207261;28;20048;-76
2022/07/16 01:12:18;;;;;;;2.78;1.50;;;16.60;94.70;;;16.94;74.93;101504.72;5207044;28;20112;-76
2022/07/16 01:14:51;;;;;;;1.67;1.20;;;16.60;94.80;;;16.91;75.22;101501.16;5207170;28;20518;-75
2022/07/16 01:17:25;;;;;;;2.20;1.50;;;16.50;95.00;;;16.88;75.45;101491.44;5206837;28;20409;-75
2022/07/16 01:19:57;;;;;;;4.05;1.50;;;16.50;95.40;;;16.86;75.63;101487.88;5189011;28;20048;-74
2022/07/16 01:22:29;;;;;;;2.55;1.30;;;16.50;95.30;;;16.87;75.61;101494.91;5189037;28;20144;-74
2022/07/16 01:25:03;;;;;;;3.15;1.42;;;16.50;95.40;;;16.89;75.37;101489.69;5206814;28;20033;-75
2022/07/16 01:27:35;;;;;;;2.08;1.27;;;16.50;95.30;;;16.88;75.50;101488.78;5206018;28;20121;-75
2022/07/16 01:30:09;;;;;;;2.85;1.42;;;16.50;95.40;;;16.88;75.19;101488.78;5206323;28;20034;-75
2022/07/16 01:32:41;;;;;;;2.05;1.20;;;16.50;95.40;;;16.91;74.99;101488.00;5206687;28;20128;-75
2022/07/16 01:35:13;;;;;;;4.30;1.42;;;16.50;95.30;;;16.87;75.04;101479.13;5206420;28;20045;-75
2022/07/16 01:37:46;;;;;;;2.95;1.40;;;16.50;95.40;;;16.88;74.99;101488.78;5206689;28;20049;-74
2022/07/16 01:40:19;;;;;;;2.10;1.17;;;16.50;95.40;;;16.86;75.29;101492.25;5206477;28;20510;-75
2022/07/16 01:42:52;;;;;;;1.85;1.30;;;16.50;95.50;;;16.81;75.66;101492.16;5206702;28;20087;-75
2022/07/16 01:45:24;;;;;;;2.05;1.40;;;16.40;95.70;;;16.75;76.04;101490.28;5188499;28;20398;-75
2022/07/16 01:47:56;;;;;;;2.10;1.30;;;16.40;95.80;;;16.70;76.32;101494.59;5206379;28;20429;-75
2022/07/16 01:50:29;;;;;;;3.72;1.48;;;16.30;96.00;;;16.65;76.59;101503.22;5206371;28;20494;-74
2022/07/16 01:53:01;;;;;;;1.80;1.17;;;16.30;96.20;;;16.60;76.86;101503.09;5206294;28;20117;-75
2022/07/16 01:55:35;;;;;;;2.58;1.45;;;16.30;96.30;;;16.55;77.38;101499.47;5206106;28;20042;-75
2022/07/16 01:58:10;;;;;;;2.65;1.48;;;16.20;96.60;;;16.51;78.02;101493.28;5206161;28;20041;-74
2022/07/16 02:00:45;;;;;;;2.13;1.25;;;16.20;96.80;;;16.48;77.83;101501.09;5188213;28;20041;-75
2022/07/16 02:03:17;;;;;;;2.55;1.27;;;16.20;96.90;;;16.47;77.74;101495.81;5206276;28;20057;-76
2022/07/16 02:05:49;;;;;;;1.23;1.02;;;16.10;96.90;;;16.42;77.94;101498.31;5205910;28;20048;-74
2022/07/16 02:08:21;;;;;;;2.33;1.30;;;16.10;97.00;;;16.38;78.08;101496.50;5205984;28;20042;-75
2022/07/16 02:10:55;;;;;;;1.98;1.13;;;16.10;97.10;;;16.31;78.13;101491.97;5188231;28;20045;-75
2022/07/16 02:13:27;;;;;;;2.05;1.20;;;16.00;97.20;;;16.25;78.54;101495.34;5205989;28;20490;-75
2022/07/16 02:15:59;;;;;;;1.58;1.25;;;15.90;97.40;;;16.21;78.88;101498.72;5206016;28;20449;-75
2022/07/16 02:18:31;;;;;;;4.18;1.40;;;15.90;97.60;;;16.16;79.03;101496.84;5205998;28;20077;-75
2022/07/16 02:21:04;;;;;;;1.30;1.17;;;15.80;98.00;;;16.10;79.28;101492.34;5188049;28;20445;-74
2022/07/16 02:23:36;;;;;;;1.42;1.05;;;15.80;97.90;;;16.05;79.64;101494.00;5188102;28;20395;-74
2022/07/16 02:26:10;;;;;;;1.98;1.27;;;15.70;98.10;;;16.04;79.70;101502.75;5188088;28;20037;-76
2022/07/16 02:28:42;;;;;;;2.30;1.10;;;15.70;98.20;;;16.02;79.86;101497.41;5205987;28;20045;-74
2022/07/16 02:31:14;;;;;;;2.17;1.50;;;15.70;98.30;;;15.97;79.81;101493.81;5188478;28;20099;-74
2022/07/16 02:33:46;;;;;;;3.47;1.35;;;15.60;98.40;;;15.97;79.64;101495.53;5205812;28;20516;-75
2022/07/16 02:36:18;;;;;;;1.92;1.13;;;15.60;98.30;;;15.96;79.75;101486.75;5188002;28;20518;-74
2022/07/16 02:38:51;;;;;;;1.40;1.30;;;15.60;98.40;;;15.93;79.69;101489.31;5205641;28;20566;-75
2022/07/16 02:41:24;;;;;;;3.15;1.40;;;15.60;98.40;;;15.92;79.46;101487.56;5192148;28;20433;-75
2022/07/16 02:43:56;;;;;;;2.03;1.23;;;15.60;98.40;;;15.93;79.14;101491.94;5210000;28;20434;-74
2022/07/16 02:46:28;;;;;;;2.25;1.42;;;15.60;98.30;;;15.92;79.12;101495.44;5209709;28;20038;-74
2022/07/16 02:49:00;;;;;;;1.50;1.40;;;15.60;98.30;;;15.89;79.18;101491.84;5192039;28;20216;-74
2022/07/16 02:51:33;;;;;;;3.08;1.42;;;15.60;98.30;;;15.84;79.37;101486.44;5209748;28;20442;-74
2022/07/16 02:54:05;;;;;;;2.60;1.40;;;15.60;98.40;;;15.86;79.22;101494.41;5192012;28;20050;-75
2022/07/16 02:56:39;;;;;;;1.73;1.35;;;15.50;98.40;;;15.86;79.17;101490.03;5209658;28;20046;-75
2022/07/16 02:59:11;;;;;;;1.90;1.30;;;15.50;98.40;;;15.89;79.03;101491.84;5209707;28;20455;-75
2022/07/16 03:01:43;;;;;;;1.48;1.02;;;15.60;98.40;;;15.91;78.72;101488.41;5209636;28;20045;-75
2022/07/16 03:04:15;;;;;;;2.65;1.33;;;15.60;98.30;;;15.89;78.58;101500.59;5209604;28;20048;-74
2022/07/16 03:06:47;;;;;;;2.10;1.40;;;15.60;98.30;;;15.88;78.85;101501.47;5209436;28;20037;-75
2022/07/16 03:09:20;;;;;;;4.22;1.83;;;15.60;98.30;;;15.89;78.68;101505.88;5209415;28;20124;-74
2022/07/16 03:11:53;;;;;;;2.35;1.35;;;15.60;98.30;;;15.89;78.49;101505.88;5209332;28;20049;-74
2022/07/16 03:14:25;;;;;;;1.42;1.30;;;15.60;98.20;;;15.91;78.33;101503.25;5209257;28;20045;-75
2022/07/16 03:16:57;;;;;;;2.40;1.48;;;15.60;98.20;;;15.91;78.32;101504.19;5209570;28;20037;-75
2022/07/16 03:19:30;;;;;;;2.63;1.65;;;15.60;98.20;;;15.92;78.17;101500.69;5209236;28;20119;-74
2022/07/16 03:22:02;;;;;;;2.90;1.35;;;15.60;98.20;;;15.94;78.09;101505.97;5209164;28;20044;-75
2022/07/16 03:24:34;;;;;;;2.47;1.35;;;15.60;98.20;;;15.98;78.14;101508.72;5191362;28;20139;-75
2022/07/16 03:27:08;;;;;;;3.05;1.40;;;15.70;98.20;;;16.01;78.19;101516.69;5191254;28;20042;-74
2022/07/16 03:29:40;;;;;;;2.55;1.50;;;15.70;98.20;;;16.03;78.00;101508.81;5209066;28;20076;-75
2022/07/16 03:32:13;;;;;;;1.92;1.35;;;15.70;98.10;;;16.07;77.92;101520.31;5208947;28;20052;-75
2022/07/16 03:34:45;;;;;;;3.08;1.35;;;15.70;98.10;;;16.08;78.26;101516.81;5208859;28;20525;-75
2022/07/16 03:37:17;;;;;;;2.85;1.25;;;15.80;98.30;;;16.10;78.81;101521.25;5208841;28;20049;-75
2022/07/16 03:39:49;;;;;;;2.75;1.23;;;15.80;98.40;;;16.11;78.78;101514.28;5208774;28;20049;-75
2022/07/16 03:42:22;;;;;;;1.50;1.02;;;15.80;98.50;;;16.11;78.62;101517.81;5208736;28;20045;-75
2022/07/16 03:44:55;;;;;;;2.83;1.60;;;15.80;98.40;;;16.13;78.40;101515.19;5208766;28;20392;-74
2022/07/16 03:47:27;;;;;;;3.40;1.40;;;15.80;98.30;;;16.15;77.86;101516.13;5208846;28;20065;-75
2022/07/16 03:49:59;;;;;;;3.25;1.35;;;15.80;98.10;;;16.18;77.92;101524.09;5208624;28;20049;-76
2022/07/16 03:52:31;;;;;;;1.40;1.10;;;15.80;98.20;;;16.20;77.99;101522.38;5207819;28;20041;-74
2022/07/16 03:55:04;;;;;;;1.67;1.30;;;15.80;98.10;;;16.22;77.89;101516.28;5208583;28;20037;-74
2022/07/16 03:57:37;;;;;;;3.05;1.52;;;15.90;98.10;;;16.23;77.73;101514.53;5208566;28;20470;-75
2022/07/16 04:00:11;;;;;;;2.40;1.40;;;15.90;98.00;;;16.22;77.39;101505.78;5208474;28;20426;-74
2022/07/16 04:02:44;;;;;;;3.83;1.50;;;15.90;97.90;;;16.20;77.29;101507.50;5208704;28;20045;-75
2022/07/16 04:05:16;;;;;;;2.35;1.58;;;15.90;97.80;;;16.21;77.09;101513.63;5208340;28;20037;-74
2022/07/16 04:07:48;;;;;;;3.35;1.40;;;15.90;97.80;;;16.21;77.31;101517.16;5208237;28;20471;-75
2022/07/16 04:10:20;;;;;;;2.50;1.35;;;15.90;97.70;;;16.22;77.17;101515.41;5190449;28;20446;-73
2022/07/16 04:12:54;;;;;;;1.90;1.30;;;15.90;97.80;;;16.27;77.10;101516.41;5208332;28;20080;-75
2022/07/16 04:15:26;;;;;;;1.85;1.45;;;16.00;97.80;;;16.30;76.98;101527.03;5208260;28;20728;-76
2022/07/16 04:17:58;;;;;;;2.10;1.42;;;16.00;97.70;;;16.35;77.04;101528.00;5208017;28;20052;-76
2022/07/16 04:20:30;;;;;;;2.50;1.42;;;16.00;97.80;;;16.38;77.22;101528.06;5208102;28;20369;-75
2022/07/16 04:23:03;;;;;;;2.83;1.50;;;16.10;97.80;;;16.41;76.97;101528.13;5208130;28;20046;-75
2022/07/16 04:25:35;;;;;;;2.80;1.20;;;16.10;97.80;;;16.43;77.00;101526.44;5208004;28;20046;-74
2022/07/16 04:28:09;;;;;;;3.30;1.20;;;16.10;97.80;;;16.46;76.87;101529.13;5190236;28;20063;-74
2022/07/16 04:30:41;;;;;;;2.40;1.23;;;16.10;97.70;;;16.48;76.80;101529.16;5208102;28;20091;-75
2022/07/16 04:33:13;;;;;;;3.63;1.40;;;16.20;97.70;;;16.50;76.93;101528.34;5207934;28;20053;-74
2022/07/16 04:35:45;;;;;;;3.35;1.60;;;16.20;97.70;;;16.51;76.80;101530.13;5207891;28;20107;-74
2022/07/16 04:38:18;;;;;;;1.90;1.13;;;16.20;97.70;;;16.51;76.87;101524.88;5190064;28;20136;-74
2022/07/16 04:40:50;;;;;;;3.17;1.50;;;16.20;97.70;;;16.51;76.77;101530.13;5207649;28;20052;-75
2022/07/16 04:43:24;;;;;;;1.85;1.27;;;16.20;97.70;;;16.55;76.88;101538.97;5207647;28;20045;-75
2022/07/16 04:45:56;;;;;;;2.80;1.60;;;16.20;97.70;;;16.59;76.91;101537.31;5207436;28;20044;-74
2022/07/16 04:48:28;;;;;;;3.03;1.48;;;16.30;97.70;;;16.63;76.94;101534.78;5272915;22;20054;-71
2022/07/16 04:51:00;;;;;;;1.92;1.30;;;16.30;97.70;;;16.68;76.69;101540.13;5215539;28;20125;-71
2022/07/16 04:53:32;;;;;;;2.22;1.30;;;16.30;97.90;;;16.73;76.43;101541.16;5207490;28;20524;-71
2022/07/16 04:56:05;;;;;;;2.33;1.10;;;16.40;97.60;;;16.79;76.30;101536.00;5207833;28;20041;-71
2022/07/16 04:58:39;;;;;;;1.65;1.15;;;16.40;97.50;;;16.87;75.93;101539.69;5207446;28;20037;-71
2022/07/16 05:01:11;;;;;;;3.58;1.25;;;16.50;97.40;;;16.91;75.62;101531.00;5207263;28;20064;-70
2022/07/16 05:03:43;;;;;;;2.00;1.35;;;16.50;97.20;;;16.94;75.33;101533.69;5189335;28;20049;-71
2022/07/16 05:06:15;;;;;;;2.60;1.30;;;16.60;97.10;;;16.97;75.26;101530.25;5189562;28;20055;-70
2022/07/16 05:08:48;;;;;;;1.58;1.23;;;16.60;97.00;;;17.00;75.31;101535.56;5207120;28;20128;-71
2022/07/16 05:11:20;;;;;;;3.35;1.30;;;16.70;97.00;;;17.04;75.00;101538.31;5207303;28;20041;-72
2022/07/16 05:13:54;;;;;;;3.53;1.60;;;16.70;96.90;;;17.06;74.50;101530.41;5189595;28;20055;-72
2022/07/16 05:16:26;;;;;;;2.33;1.23;;;16.70;96.70;;;17.08;74.74;101534.88;5207232;28;20049;-71
2022/07/16 05:18:58;;;;;;;4.88;1.40;;;16.70;96.70;;;17.11;74.79;101541.06;5206905;28;20050;-72
2022/07/16 05:21:30;;;;;;;2.88;1.65;;;16.80;96.80;;;17.16;74.97;101531.50;5206723;28;20045;-70
2022/07/16 05:24:02;;;;;;;2.25;1.40;;;16.80;96.80;;;17.24;74.93;101545.72;5189214;28;20498;-70
2022/07/16 05:26:34;;;;;;;3.30;1.42;;;16.90;96.80;;;17.28;74.78;101548.44;5206786;28;20124;-71
2022/07/16 05:29:08;;;;;;;3.40;1.40;;;16.90;96.70;;;17.35;74.44;101544.19;5206733;28;20061;-71
2022/07/16 05:31:40;;;;;;;6.97;2.00;;;17.00;96.60;;;17.38;73.90;101549.50;5206671;28;20049;-72
2022/07/16 05:34:13;;;;;;;3.80;1.67;;;17.00;96.40;;;17.39;73.87;101546.00;5189122;28;20041;-71
2022/07/16 05:36:45;;;;;;;3.80;1.60;;;17.00;96.30;;;17.40;73.78;101547.75;5206589;28;20076;-70
2022/07/16 05:39:17;;;;;;;4.85;2.00;;;17.10;96.30;;;17.39;73.52;101547.75;5206575;28;20045;-71
2022/07/16 05:41:49;;;;;;;5.53;2.42;;;17.10;96.10;;;17.34;73.59;101543.28;5206528;28;20379;-72
2022/07/16 05:44:23;;;;;;;3.70;1.63;;;17.00;96.10;;;17.35;73.68;101545.06;5206511;28;20124;-71
2022/07/16 05:46:55;;;;;;;5.93;1.63;;;17.10;96.10;;;17.38;73.85;101546.84;5206293;28;20037;-72
2022/07/16 05:49:27;;;;;;;3.00;1.30;;;17.10;96.20;;;17.38;73.67;101544.22;5188556;28;20045;-71
2022/07/16 05:51:59;;;;;;;2.80;1.27;;;17.10;96.10;;;17.40;73.76;101555.66;5206192;28;20045;-71
2022/07/16 05:54:32;;;;;;;2.55;1.30;;;17.10;96.10;;;17.42;73.49;101553.97;5188640;28;20223;-71
2022/07/16 05:57:04;;;;;;;4.03;1.73;;;17.10;96.10;;;17.47;73.58;101548.75;5206171;28;20045;-71
2022/07/16 05:59:38;;;;;;;1.77;1.10;;;17.10;96.10;;;17.48;73.83;101556.72;5206304;28;20049;-75
2022/07/16 06:02:10;;;;;;;1.73;1.20;;;17.10;96.20;;;17.59;74.57;101555.16;5207184;28;20453;-76
2022/07/16 06:04:42;;;;;;;2.25;1.05;;;17.20;96.50;;;17.76;74.89;101555.50;5207146;28;20072;-76
2022/07/16 06:07:14;;;;;;;2.42;1.20;;;17.40;96.70;;;17.89;74.01;101544.28;5189176;28;20037;-76
2022/07/16 06:09:46;;;;;;;2.33;1.60;;;17.50;96.30;;;18.00;73.50;101547.13;5207314;28;20084;-76
2022/07/16 06:12:19;;;;;;;1.65;1.10;;;17.60;96.10;;;18.14;72.89;101553.50;5207284;28;20052;-76
2022/07/16 06:14:52;;;;;;;2.08;1.20;;;17.70;95.80;;;18.28;71.97;101552.81;5207653;28;20069;-77
2022/07/16 06:17:24;;;;;;;1.20;1.10;;;17.90;95.40;;;18.39;71.08;101554.78;5186534;28;20414;-77
2022/07/16 06:19:57;;;;;;;2.22;1.15;;;18.00;95.20;;;18.55;70.39;101561.16;5185630;28;20052;-77
2022/07/16 06:22:29;;;;;;;1.65;1.20;;;18.10;94.80;;;18.71;69.87;101562.25;5179836;28;20100;-75
2022/07/16 06:25:02;;;;;;;2.28;1.33;;;18.30;94.60;;;18.86;68.63;101564.25;5174237;28;20592;-75
2022/07/16 06:27:34;;;;;;;2.10;1.50;;;18.40;94.20;;;18.96;68.17;101564.38;5151003;28;20060;-75
2022/07/16 06:30:09;;;;;;;2.00;1.17;;;18.50;93.80;;;19.04;67.69;101563.56;5168598;28;20483;-71
2022/07/16 06:32:43;;;;;;;2.85;1.83;;;18.60;93.50;;;19.10;67.34;101559.25;5180014;28;20454;-75
2022/07/16 06:35:15;;;;;;;2.67;1.27;;;18.60;93.20;;;19.17;66.99;101571.69;5184940;28;20052;-75
2022/07/16 06:37:47;;;;;;;1.50;1.00;;;18.80;93.10;;;19.24;67.11;101568.25;5174834;28;20074;-76
2022/07/16 06:40:19;;;;;;;2.60;1.30;;;18.80;93.00;;;19.32;67.11;101567.44;5184198;28;20569;-74
2022/07/16 06:42:51;;;;;;;2.58;1.00;;;18.90;93.10;;;19.39;66.96;101571.94;5185466;28;20046;-74
2022/07/16 06:45:28;;;;;;;1.17;1.08;;;18.90;93.20;;;19.45;66.30;101572.00;5184197;28;20236;-73
2022/07/16 06:48:00;;;;;;;4.90;1.40;;;19.00;92.60;;;19.49;66.17;101579.06;5184696;28;20034;-75
2022/07/16 06:50:32;;;;;;;2.55;1.05;;;19.00;92.50;;;19.51;65.93;101574.72;5174194;28;20510;-75
2022/07/16 06:53:05;;;;;;;1.45;1.15;;;19.10;92.30;;;19.55;66.07;101584.41;5175307;28;20041;-75
2022/07/16 06:55:37;;;;;;;2.50;1.08;;;19.10;92.30;;;19.59;65.99;101594.22;5175581;28;20077;-75
2022/07/16 06:58:09;;;;;;;1.35;1.10;;;19.10;92.30;;;19.63;66.08;101590.75;5176421;28;20038;-75
2022/07/16 07:00:42;;;;;;;2.65;1.25;;;19.20;92.30;;;19.67;66.03;101591.63;5168138;28;20505;-74
2022/07/16 07:03:15;;;;;;;2.75;1.10;;;19.20;92.30;;;19.70;65.70;101594.34;5164928;28;20138;-71
2022/07/16 07:05:47;;;;;;;2.60;1.13;;;19.20;92.10;;;19.68;65.81;101591.66;5164685;28;20042;-72
2022/07/16 07:08:19;;;;;;;6.95;1.33;;;19.20;92.10;;;19.69;65.76;101593.44;5164508;28;20113;-72
2022/07/16 07:10:51;;;;;;;5.95;1.50;;;19.20;92.10;;;19.72;65.95;101598.75;5164475;28;20521;-72
2022/07/16 07:13:23;;;;;;;3.75;1.40;;;19.30;92.10;;;19.74;65.44;101607.56;5164473;28;20046;-72
2022/07/16 07:15:57;;;;;;;3.13;1.23;;;19.30;91.90;;;19.75;64.78;101604.06;5164542;28;20415;-71
2022/07/16 07:18:29;;;;;;;4.68;1.65;;;19.30;91.60;;;19.79;64.57;101599.69;5182761;28;20552;-73
2022/07/16 07:21:02;;;;;;;2.33;1.30;;;19.30;91.40;;;19.82;64.36;101612.06;5179554;28;20494;-72
2022/07/16 07:23:35;;;;;;;1.95;1.23;;;19.30;91.40;;;19.85;64.21;101606.81;5205173;28;20088;-71
2022/07/16 07:26:07;;;;;;;2.22;1.50;;;19.40;91.30;;;19.92;63.89;101616.59;5207027;28;20064;-71
2022/07/16 07:28:39;;;;;;;3.55;1.30;;;19.40;91.10;;;19.96;63.71;101615.75;5202017;28;20073;-71
2022/07/16 07:31:13;;;;;;;3.22;1.40;;;19.40;91.00;;;19.98;63.54;101619.28;5171656;28;20077;-71
2022/07/16 07:33:45;;;;;;;4.07;1.42;;;19.50;91.00;;;19.99;63.42;101605.19;5188571;28;20394;-72
2022/07/16 07:36:19;;;;;;;2.47;1.52;;;19.50;90.70;;;20.09;63.83;101606.16;5182959;28;20466;-71
2022/07/16 07:38:51;;;;;;;2.88;1.45;;;19.60;90.90;;;20.28;63.55;101606.31;5186858;28;20052;-72
2022/07/16 07:41:23;;;;;;;1.83;1.50;;;19.60;90.90;;;20.42;63.20;101602.88;5176317;28;20410;-65
2022/07/16 07:43:55;;;;;;;4.43;1.45;;;19.80;90.80;;;20.56;63.44;101617.13;5199595;28;20073;-72
2022/07/16 07:46:29;;;;;;;2.95;1.48;;;19.90;90.80;;;20.70;63.39;101604.88;5188202;28;20054;-72
2022/07/16 07:49:02;;;;;;;3.13;1.70;;;20.10;90.80;;;20.78;63.11;101603.13;5169967;28;20045;-71
2022/07/16 07:51:34;;;;;;;2.80;1.55;;;20.20;90.60;;;20.84;62.93;101610.25;5188086;28;20510;-72
2022/07/16 07:54:06;;;;;;;3.45;1.90;;;20.20;90.70;;;20.91;63.19;101613.81;5188044;28;20052;-71
2022/07/16 07:56:38;;;;;;;3.67;1.70;;;20.30;90.50;;;21.09;63.19;101604.19;5170328;28;20057;-72
2022/07/16 07:59:10;;;;;;;8.18;1.90;;;20.40;90.90;;;21.51;62.66;101613.19;5187571;28;20528;-71
2022/07/16 08:01:44;;;;;;;5.18;2.22;;;20.70;90.90;;;21.72;61.57;101604.41;5170485;28;20142;-72
2022/07/16 08:04:16;;;;;;;2.92;1.80;;;20.90;90.20;;;22.07;61.19;101609.75;5188006;28;20050;-72
2022/07/16 08:06:48;;;;;;;2.63;1.80;;;21.20;90.00;;;22.54;60.63;101610.63;5187800;28;20038;-68
2022/07/16 08:09:21;;;;;;;2.38;1.70;;;21.50;90.00;;;23.04;60.36;101613.22;5187673;28;20046;-72
2022/07/16 08:11:53;;;;;;;7.90;2.10;;;21.80;89.80;;;23.50;59.35;101613.00;5188594;28;20716;-72
2022/07/16 08:14:25;;;;;;;4.55;1.88;;;22.20;88.90;;;23.93;58.11;101613.66;5187876;28;20072;-70
2022/07/16 08:16:59;;;;;;;4.35;2.20;;;22.60;87.90;;;24.22;56.50;101609.84;5170124;28;20045;-69
2022/07/16 08:19:32;;;;;;;;;;;22.80;85.80;;;24.20;56.16;101619.66;5187853;28;20141;-69
2022/07/16 08:22:05;;;;;;;3.47;2.08;;;23.00;84.90;;;24.37;56.39;101617.72;5187598;28;19998;-72
2022/07/16 08:27:28;;;;;;;3.60;1.75;;;23.30;84.30;;;25.21;54.40;101630.19;5169595;28;20064;-70
2022/07/16 08:30:00;;;;;;;2.95;1.85;;;23.60;83.30;;;25.05;54.35;101632.16;5187192;28;20041;-70
2022/07/16 08:32:33;;;;;;;3.55;1.75;;;23.60;82.40;;;25.33;54.26;101616.69;5169646;28;20046;-70
2022/07/16 08:35:06;;;;;;;3.25;1.98;;;23.70;82.50;;;26.10;52.75;101626.28;5169924;28;20506;-72
2022/07/16 08:37:41;;;;;;;2.15;1.50;;;24.00;81.90;;;26.99;50.01;101623.75;5186646;28;20044;-74
2022/07/16 08:40:16;;;;;;;4.72;1.83;;;24.50;79.80;;;27.29;48.87;101613.38;5187032;28;20453;-74
2022/07/16 08:42:50;;;;;;;3.35;1.70;;;24.80;77.90;;;27.40;48.62;101634.56;5187550;28;20061;-74
2022/07/16 08:45:23;;;;;;;2.60;1.77;;;24.90;76.90;;;27.73;48.40;101630.28;5187120;28;20045;-74
2022/07/16 08:47:58;;;;;;;4.82;2.15;;;25.20;77.30;;;28.66;46.61;101627.94;5167661;28;20045;-73
2022/07/16 08:50:30;;;;;;;4.22;1.90;;;25.80;75.60;;;29.28;45.03;101625.31;5196035;28;20052;-73
2022/07/16 08:53:04;;;;;;;3.88;1.60;;;26.30;73.20;;;28.84;44.77;101634.63;5195070;28;20494;-72
2022/07/16 08:55:38;;;;;;;;;;;26.40;70.70;;;28.58;45.50;101638.00;5172448;28;20129;-73
2022/07/16 08:58:10;;;;;;;3.97;1.90;;;26.40;70.50;;;28.07;45.85;101644.63;5198768;28;20293;-74
2022/07/16 09:00:43;;;;;;;2.97;2.25;;;26.20;70.20;;;27.57;46.54;101632.38;5202139;28;20135;-77
2022/07/16 09:03:16;;;;;;;3.17;2.30;;;25.90;70.20;;;26.72;48.11;101641.22;5181423;28;20072;-76
2022/07/16 09:05:51;;;;;;;4.07;2.00;;;25.40;70.80;;;27.32;48.12;101645.41;5207404;28;20045;-74
2022/07/16 09:08:23;;;;;;;3.53;2.13;;;25.40;71.90;;;28.50;46.23;101642.72;5207029;28;20044;-75
2022/07/16 09:10:55;;;;;;;4.53;2.75;;;26.00;71.30;;;29.14;43.97;101646.28;5207317;28;20092;-73
2022/07/16 09:13:27;;;;;;;4.00;2.47;;;26.50;69.00;;;29.08;43.96;101649.16;5207347;28;20052;-76
2022/07/16 09:16:00;;;;;;;4.30;2.25;;;26.60;68.50;;;28.43;45.12;101651.81;5208045;28;20048;-74
2022/07/16 09:18:33;;;;;;;2.80;2.03;;;26.40;68.40;;;28.89;45.25;101647.00;5207570;28;20037;-75
2022/07/16 09:21:05;;;;;;;4.80;2.05;;;26.50;68.90;;;29.82;44.01;101661.31;5206894;28;20045;-73
2022/07/16 09:23:39;;;;;;;2.42;1.90;;;27.10;68.40;;;29.61;43.45;101660.16;5206992;28;20049;-67
2022/07/16 09:26:12;;;;;;;3.20;2.20;;;27.20;66.90;;;28.91;44.18;101653.22;5206681;28;20033;-66
2022/07/16 09:28:47;;;;;;;4.28;2.00;;;26.90;66.70;;;27.96;45.83;101653.84;5206263;28;20517;-70
2022/07/16 09:31:35;;;;;;;4.63;2.10;;;26.40;67.10;;;26.90;47.75;101657.84;5206697;28;20435;-68
2022/07/16 09:34:13;;;;;;;3.97;2.30;;;25.80;68.40;;;25.98;49.71;101664.75;5206827;28;20049;-68
2022/07/16 09:36:59;;;;;;;3.50;2.22;;;25.10;69.60;;;25.30;51.37;101674.53;5206613;28;20045;-70
2022/07/16 09:39:33;;;;;;;4.35;2.67;;;24.50;71.20;;;24.73;52.78;101661.81;5206607;28;20126;-69
2022/07/16 09:42:05;;;;;;;4.80;2.50;;;24.10;72.40;;;24.24;53.46;101666.66;5188730;28;20045;-69
2022/07/16 09:44:44;;;;;;;3.42;2.85;;;23.60;73.30;;;23.91;54.48;101674.00;5203176;28;20045;-69
2022/07/16 09:47:19;;;;;;;3.92;2.92;;;23.30;74.20;;;23.69;55.45;101675.03;5192421;28;20052;-69
2022/07/16 09:49:54;;;;;;;4.50;3.40;;;23.10;75.30;;;23.54;56.52;101668.88;5185102;28;20129;-68
2022/07/16 09:52:32;;;;;;;4.93;3.60;;;23.00;76.30;;;23.42;57.25;101674.25;5185921;28;20501;-69
2022/07/16 09:55:06;;;;;;;4.97;3.60;;;22.80;77.10;;;23.34;57.58;101675.13;5196559;28;20041;-69
2022/07/16 09:57:38;;;;;;;5.10;3.75;;;22.70;77.70;;;23.38;58.15;101682.22;5206375;28;20514;-67
2022/07/16 10:00:11;;;;;;;3.90;3.22;;;22.70;78.40;;;23.41;58.71;101684.88;5206234;28;20041;-71
2022/07/16 10:02:46;;;;;;;3.80;2.97;;;22.80;79.20;;;23.74;58.85;101687.44;5187392;28;20095;-73
2022/07/16 10:05:20;;;;;;;4.03;3.45;;;22.90;79.90;;;24.30;58.31;101682.59;5185961;28;20069;-71
2022/07/16 10:07:52;;;;;;;5.43;4.05;;;23.30;80.30;;;24.59;56.33;101685.94;5185288;28;20065;-71
2022/07/16 10:10:25;;;;;;;5.60;3.78;;;23.60;78.20;;;24.66;56.48;101691.22;5167711;28;20048;-71
2022/07/16 10:12:57;;;;;;;5.15;3.92;;;23.70;78.00;;;24.66;56.37;101699.22;5192569;28;20046;-73
2022/07/16 10:15:29;;;;;;;5.60;3.80;;;23.90;77.90;;;24.51;55.92;101695.78;5191949;28;20037;-72
2022/07/16 10:18:02;;;;;;;3.80;3.40;;;23.80;77.00;;;24.41;55.92;101696.75;5185295;28;20406;-71
2022/07/16 10:20:37;;;;;;;3.42;3.13;;;23.70;76.90;;;24.39;56.34;101695.91;5167871;28;20081;-72
2022/07/16 10:23:09;;;;;;;4.15;3.20;;;23.70;77.30;;;24.35;56.52;101696.81;5185614;28;20597;-72
2022/07/16 10:25:41;;;;;;;3.97;3.25;;;23.60;77.30;;;24.27;56.23;101709.28;5185525;28;20046;-72
2022/07/16 10:28:44;;;;;;;4.00;3.40;;;23.60;77.30;;;24.18;55.79;101707.53;5167292;28;20052;-73
2022/07/16 10:31:38;;;;;;;3.78;2.78;;;23.50;76.50;;;24.25;55.66;101705.72;5185247;28;20056;-72
2022/07/16 10:34:39;;;;;;;2.85;2.47;;;23.50;76.50;;;24.55;54.65;101700.19;5185469;28;20042;-72
2022/07/16 10:37:26;;;;;;;3.10;2.42;;;23.70;76.10;;;24.95;53.59;101705.13;5167306;28;20065;-70
2022/07/16 10:40:06;;;;;;;4.47;2.30;;;23.90;75.50;;;25.36;51.88;101701.16;5185279;28;20068;-70
2022/07/16 10:42:38;;;;;;;2.33;2.13;;;24.30;73.70;;;25.71;50.35;101711.41;5185353;28;20076;-68
2022/07/16 10:45:10;;;;;;;2.28;2.08;;;24.50;71.90;;;25.96;48.45;101707.53;5185386;28;20069;-68